Time;durP1;ratioP1;P1;durP2;ratioP2;P2;SDS_P1;SDS_P2;PMS_P1;PMS_P2;Temp;Humidity;BMP_temperature;BMP_pressure;BME280_temperature;BME280_humidity;BME280_pressure;Samples;Min_cycle;Max_cycle;Signal;HPM_P1;HPM_P2
2023/03/28 00:00:43;;;;;;;;;;;;;;;5.93;88.25;101124.50;5070175;28;20398;-60
2023/03/28 00:03:13;;;;;;;;;;;;;;;5.87;88.80;101116.53;5070130;28;20021;-60
2023/03/28 00:05:41;;;;;;;;;;;;;;;5.79;89.28;101123.50;5069939;28;20364;-60
2023/03/28 00:08:07;;;;;;;;;;;;;;;5.71;89.80;101125.25;5066467;28;20013;-60
2023/03/28 00:10:32;;;;;;;;;;;;;;;5.64;90.10;101124.34;5069515;28;20031;-60
2023/03/28 00:12:58;;;;;;;;;;;;;;;5.58;90.34;101139.25;5069569;28;19927;-60
2023/03/28 00:15:24;;;;;;;;;;;;;;;5.58;91.12;101133.97;5069425;28;20025;-60
2023/03/28 00:17:51;;;;;;;;;;;;;;;5.58;91.71;101139.25;5065697;28;20583;-61
2023/03/28 00:20:17;;;;;;;;;;;;;;;5.59;92.11;101141.00;5069070;28;20345;-60
2023/03/28 00:22:43;;;;;;;;;;;;;;;5.55;91.97;101139.25;5066004;28;20302;-61
2023/03/28 00:25:08;;;;;;;;;;;;;;;5.52;92.09;101141.88;5067591;28;19950;-60
2023/03/28 00:27:34;;;;;;;;;;;;;;;5.48;92.84;101143.59;5069673;28;19931;-60
2023/03/28 00:29:59;;;;;;;;;;;;;;;5.50;92.45;101144.50;5069888;28;20003;-60
2023/03/28 00:32:25;;;;;;;;;;;;;;;5.48;92.79;101148.88;5064540;28;19943;-60
2023/03/28 00:34:50;;;;;;;;;;;;;;;5.48;92.75;101153.28;5069840;28;19993;-61
2023/03/28 00:37:16;;;;;;;;;;;;;;;5.48;93.05;101148.00;5069208;28;19956;-60
2023/03/28 00:39:42;;;;;;;;;;;;;;;5.48;92.75;101145.34;5070847;28;19944;-60
2023/03/28 00:42:12;;;;;;;;;;;;;;;5.46;93.21;101147.09;5056028;28;19917;-60
2023/03/28 00:44:41;;;;;;;;;;;;;;;5.46;93.15;101155.91;5054101;28;19927;-60
2023/03/28 00:47:14;;;;;;;;;;;;;;;5.44;93.19;101154.16;5059262;28;19940;-60
2023/03/28 00:49:40;;;;;;;;;;;;;;;5.42;93.64;101153.25;5053502;28;19963;-59
2023/03/28 00:52:07;;;;;;;;;;;;;;;5.40;93.19;101154.09;5056690;28;20258;-60
2023/03/28 00:54:38;;;;;;;;;;;;;;;5.40;93.72;101158.50;5074161;28;19999;-60
2023/03/28 00:57:05;;;;;;;;;;;;;;;5.38;93.44;101150.59;5073148;28;20452;-61
2023/03/28 00:59:32;;;;;;;;;;;;;;;5.36;93.99;101154.97;5070529;28;19938;-60
2023/03/28 01:01:58;;;;;;;;;;;;;;;5.34;93.81;101159.34;5073482;28;19971;-60
2023/03/28 01:04:26;;;;;;;;;;;;;;;5.28;93.76;101158.41;5067930;28;19955;-60
2023/03/28 01:06:53;;;;;;;;;;;;;;;5.21;93.73;101160.13;5066050;28;19943;-60
2023/03/28 01:09:20;;;;;;;;;;;;;;;5.14;93.76;101163.59;5073290;28;19924;-60
2023/03/28 01:11:45;;;;;;;;;;;;;;;5.08;94.08;101158.28;5069490;28;19935;-60
2023/03/28 01:14:14;;;;;;;;;;;;;;;5.02;94.33;101163.53;5073420;28;20424;-60
2023/03/28 01:16:40;;;;;;;;;;;;;;;4.99;94.28;101158.19;5073002;28;19955;-60
2023/03/28 01:19:11;;;;;;;;;;;;;;;5.00;94.24;101165.25;5058693;28;20394;-60
2023/03/28 01:21:48;;;;;;;;;;;;;;;4.98;94.77;101167.00;5053878;28;19962;-60
2023/03/28 01:24:32;;;;;;;;;;;;;;;4.98;94.40;101169.63;5072482;28;19946;-61
2023/03/28 01:26:57;;;;;;;;;;;;;;;4.97;94.70;101173.16;5073043;28;19927;-60
2023/03/28 01:29:38;;;;;;;;;;;;;;;4.93;94.39;101166.06;5069409;28;19929;-60
2023/03/28 01:32:22;;;;;;;;;;;;;;;4.94;94.70;101169.59;5072939;28;20409;-60
2023/03/28 01:34:53;;;;;;;;;;;;;;;4.90;94.95;101168.69;5073010;28;19920;-60
2023/03/28 01:37:33;;;;;;;;;;;;;;;4.92;95.08;101172.22;5067089;28;19945;-60
2023/03/28 01:40:05;;;;;;;;;;;;;;;4.94;94.81;101170.44;5052704;28;19940;-60
2023/03/28 01:42:33;;;;;;;;;;;;;;;4.85;94.77;101165.13;5068757;28;20385;-60
2023/03/28 01:45:16;;;;;;;;;;;;;;;4.83;94.73;101171.22;5058983;28;19947;-60
2023/03/28 01:47:46;;;;;;;;;;;;;;;4.76;95.15;101165.03;5051591;28;19942;-59
2023/03/28 01:50:22;;;;;;;;;;;;;;;4.75;95.47;101171.19;5063794;28;20442;-60
2023/03/28 01:53:06;;;;;;;;;;;;;;;4.67;95.34;101172.88;5051543;28;20054;-60
2023/03/28 01:55:52;;;;;;;;;;;;;;;4.64;95.26;101172.84;5053993;28;19917;-60
2023/03/28 01:58:30;;;;;;;;;;;;;;;4.59;94.99;101178.91;5060507;28;19966;-60
2023/03/28 02:01:01;;;;;;;;;;;;;;;4.56;95.39;101182.44;5052197;28;19947;-60
2023/03/28 02:03:35;;;;;;;;;;;;;;;4.57;95.34;101180.66;5070124;28;19939;-60
2023/03/28 02:06:03;;;;;;;;;;;;;;;4.48;95.11;101177.94;5066694;28;20308;-60
2023/03/28 02:08:31;;;;;;;;;;;;;;;4.45;95.63;101178.78;5054508;28;19953;-60
2023/03/28 02:10:57;;;;;;;;;;;;;;;4.40;95.58;101179.59;5072448;28;19976;-60
2023/03/28 02:13:34;;;;;;;;;;;;;;;4.34;95.53;101169.88;5071668;28;19917;-61
2023/03/28 02:16:00;;;;;;;;;;;;;;;4.26;95.49;101175.94;5059670;28;19935;-60
2023/03/28 02:18:29;;;;;;;;;;;;;;;4.23;96.53;101176.78;5052249;28;19985;-60
2023/03/28 02:20:59;;;;;;;;;;;;;;;4.23;96.38;101171.53;5064506;28;20456;-60
2023/03/28 02:23:31;;;;;;;;;;;;;;;4.25;97.06;101177.66;5071855;28;20606;-60
2023/03/28 02:25:56;;;;;;;;;;;;;;;4.19;96.73;101169.72;5058941;28;20677;-60
2023/03/28 02:28:22;;;;;;;;;;;;;;;4.16;96.45;101167.03;5051775;28;19929;-60
2023/03/28 02:30:47;;;;;;;;;;;;;;;4.09;96.32;101167.84;5057813;28;20014;-60
2023/03/28 02:33:48;;;;;;;;;;;;;;;4.01;96.31;101156.34;5070291;28;20043;-60
2023/03/28 02:36:36;;;;;;;;;;;;;;;3.96;96.30;101160.66;4989781;28;20369;-60
2023/03/28 02:39:20;;;;;;;;;;;;;;;3.92;96.59;101162.38;5047888;28;20018;-60
2023/03/28 02:41:48;;;;;;;;;;;;;;;3.88;96.90;101159.69;5053745;28;20373;-61
2023/03/28 02:44:28;;;;;;;;;;;;;;;3.83;97.25;101159.63;5051658;28;19923;-60
2023/03/28 02:47:05;;;;;;;;;;;;;;;3.77;97.12;101158.69;5053787;28;20037;-60
2023/03/28 02:49:33;;;;;;;;;;;;;;;3.70;96.90;101148.94;5051078;28;19983;-60
2023/03/28 02:52:08;;;;;;;;;;;;;;;3.71;97.49;101154.22;5054704;28;19961;-61
2023/03/28 02:54:51;;;;;;;;;;;;;;;3.72;97.31;101145.44;5051327;28;19927;-60
2023/03/28 02:57:28;;;;;;;;;;;;;;;3.70;97.81;101148.94;5051626;28;19958;-59
2023/03/28 02:59:56;;;;;;;;;;;;;;;3.76;98.12;101147.25;5070300;28;19969;-60
2023/03/28 03:02:21;;;;;;;;;;;;;;;3.84;98.91;101148.22;5070340;28;20013;-60
2023/03/28 03:04:49;;;;;;;;;;;;;;;3.86;99.04;101142.97;5065652;28;20070;-60
2023/03/28 03:07:16;;;;;;;;;;;;;;;3.79;98.55;101149.03;5067641;28;19931;-60
2023/03/28 03:09:44;;;;;;;;;;;;;;;3.69;97.98;101144.53;5070931;28;19979;-60
2023/03/28 03:12:09;;;;;;;;;;;;;;;3.58;98.45;101136.50;5069996;28;19925;-60
2023/03/28 03:14:35;;;;;;;;;;;;;;;3.52;98.36;101140.78;5068307;28;20439;-60
2023/03/28 03:17:01;;;;;;;;;;;;;;;3.43;98.52;101141.53;5069869;28;20461;-60
2023/03/28 03:19:26;;;;;;;;;;;;;;;3.39;98.53;101146.75;5066440;28;19946;-60
2023/03/28 03:21:52;;;;;;;;;;;;;;;3.35;98.22;101147.56;5070043;28;19931;-60
2023/03/28 03:24:18;;;;;;;;;;;;;;;3.33;98.54;101149.28;5063178;28;19996;-60
2023/03/28 03:26:43;;;;;;;;;;;;;;;3.23;98.36;101142.13;5049966;28;20026;-60
2023/03/28 03:29:08;;;;;;;;;;;;;;;3.17;98.40;101153.44;5049858;28;20010;-60
2023/03/28 03:31:34;;;;;;;;;;;;;;;3.15;98.81;101144.63;5053482;28;19938;-60
2023/03/28 03:34:00;;;;;;;;;;;;;;;3.11;98.72;101150.72;5067096;28;20382;-60
2023/03/28 03:36:26;;;;;;;;;;;;;;;3.08;99.67;101152.41;5070273;28;20404;-59
2023/03/28 03:38:51;;;;;;;;;;;;;;;3.06;99.64;101148.88;5065951;28;20018;-59
2023/03/28 03:41:16;;;;;;;;;;;;;;;3.05;99.78;101147.97;5062874;28;20023;-60
2023/03/28 03:43:42;;;;;;;;;;;;;;;3.02;99.32;101153.19;5069942;28;20410;-60
2023/03/28 03:46:07;;;;;;;;;;;;;;;3.01;99.72;101150.53;5059112;28;19991;-61
2023/03/28 03:48:32;;;;;;;;;;;;;;;3.01;100.00;101153.16;5068903;28;19916;-60
2023/03/28 03:50:58;;;;;;;;;;;;;;;2.96;99.79;101149.59;5060410;28;19965;-60
2023/03/28 03:53:23;;;;;;;;;;;;;;;2.90;99.71;101153.00;5062303;28;20540;-60
2023/03/28 03:55:48;;;;;;;;;;;;;;;2.91;100.00;101153.88;5045975;28;20181;-60
2023/03/28 03:58:14;;;;;;;;;;;;;;;2.91;99.94;101159.13;5067475;28;19974;-60
2023/03/28 04:00:39;;;;;;;;;;;;;;;2.90;99.88;101150.38;5066893;28;19995;-60
2023/03/28 04:03:05;;;;;;;;;;;;;;;2.89;100.00;101155.59;5054553;28;20325;-60
2023/03/28 04:05:30;;;;;;;;;;;;;;;2.86;100.00;101151.19;5063154;28;20329;-60
2023/03/28 04:07:58;;;;;;;;;;;;;;;2.82;100.00;101159.88;5064856;28;20291;-60
2023/03/28 04:10:23;;;;;;;;;;;;;;;2.82;100.00;101148.50;5066197;28;20314;-60
2023/03/28 04:12:48;;;;;;;;;;;;;;;2.88;100.00;101157.34;5064965;28;19939;-60
2023/03/28 04:15:14;;;;;;;;;;;;;;;2.96;100.00;101165.34;5067601;28;19938;-60
2023/03/28 04:17:40;;;;;;;;;;;;;;;2.92;100.00;101160.88;5057638;28;20368;-60
2023/03/28 04:20:12;;;;;;;;;;;;;;;2.86;100.00;101163.44;5053697;28;19917;-60
2023/03/28 04:22:38;;;;;;;;;;;;;;;2.81;100.00;101167.72;5065619;28;19943;-60
2023/03/28 04:25:04;;;;;;;;;;;;;;;2.72;100.00;101164.09;5044788;28;19961;-60
2023/03/28 04:27:30;;;;;;;;;;;;;;;2.68;100.00;101161.38;5048524;28;19935;-60
2023/03/28 04:29:55;;;;;;;;;;;;;;;2.68;100.00;101166.66;5063229;28;20037;-60
2023/03/28 04:32:20;;;;;;;;;;;;;;;2.69;100.00;101169.28;5068215;28;20074;-60
2023/03/28 04:34:48;;;;;;;;;;;;;;;2.74;100.00;101164.09;5068032;28;19929;-60
2023/03/28 04:37:14;;;;;;;;;;;;;;;2.75;100.00;101167.63;5052232;28;20709;-60
2023/03/28 04:39:40;;;;;;;;;;;;;;;2.73;100.00;101173.72;5049956;28;20434;-61
2023/03/28 04:42:07;;;;;;;;;;;;;;;2.73;100.00;101168.47;5067648;28;19920;-60
2023/03/28 04:44:32;;;;;;;;;;;;;;;2.76;100.00;101174.63;5064107;28;19928;-60
2023/03/28 04:46:58;;;;;;;;;;;;;;;2.81;100.00;101178.22;5056516;28;20108;-59
2023/03/28 04:49:23;;;;;;;;;;;;;;;2.81;100.00;101175.59;5066970;28;19962;-60
2023/03/28 04:51:51;;;;;;;;;;;;;;;2.77;100.00;101184.31;5063613;28;19920;-60
2023/03/28 04:54:17;;;;;;;;;;;;;;;2.67;100.00;101188.50;5052531;28;20351;-60
2023/03/28 04:56:49;;;;;;;;;;;;;;;2.56;100.00;101188.31;5053003;28;19924;-59
2023/03/28 04:59:14;;;;;;;;;;;;;;;2.45;100.00;101187.25;5063627;28;19938;-60
2023/03/28 05:01:40;;;;;;;;;;;;;;;2.41;100.00;101203.78;5060071;28;20387;-60
2023/03/28 05:04:06;;;;;;;;;;;;;;;2.38;100.00;101198.47;5067692;28;20388;-61
2023/03/28 05:06:31;;;;;;;;;;;;;;;2.38;100.00;101205.47;5062324;28;20408;-60
2023/03/28 05:08:57;;;;;;;;;;;;;;;2.47;100.00;101203.88;5066618;28;19949;-60
2023/03/28 05:11:22;;;;;;;;;;;;;;;2.55;100.00;101206.69;5064202;28;19954;-60
2023/03/28 05:13:47;;;;;;;;;;;;;;;2.61;100.00;101210.28;5065328;28;20546;-60
2023/03/28 05:16:12;;;;;;;;;;;;;;;2.62;100.00;101206.81;5069141;28;20668;-59
2023/03/28 05:18:38;;;;;;;;;;;;;;;2.63;100.00;101215.56;5067301;28;20019;-60
2023/03/28 05:21:03;;;;;;;;;;;;;;;2.60;100.00;101211.13;5050592;28;19933;-60
2023/03/28 05:23:28;;;;;;;;;;;;;;;2.55;100.00;101212.78;5051703;28;19920;-60
2023/03/28 05:25:54;;;;;;;;;;;;;;;2.55;100.00;101215.41;5037115;28;20025;-60
2023/03/28 05:28:20;;;;;;;;;;;;;;;2.61;100.00;101218.19;5052929;28;19933;-60
2023/03/28 05:30:45;;;;;;;;;;;;;;;2.65;100.00;101225.25;5058764;28;19917;-59
2023/03/28 05:33:11;;;;;;;;;;;;;;;2.68;100.00;101219.16;5069155;28;19934;-60
2023/03/28 05:35:36;;;;;;;;;;;;;;;2.72;100.00;101221.88;5060231;28;19980;-60
2023/03/28 05:38:02;;;;;;;;;;;;;;;2.77;100.00;101219.31;5070295;28;19962;-59
2023/03/28 05:40:27;;;;;;;;;;;;;;;2.81;100.00;101225.50;5055099;28;19963;-60
2023/03/28 05:42:53;;;;;;;;;;;;;;;2.85;100.00;101228.22;5052717;28;20451;-60
2023/03/28 05:45:18;;;;;;;;;;;;;;;2.88;100.00;101235.28;5061170;28;19933;-60
2023/03/28 05:47:43;;;;;;;;;;;;;;;2.91;100.00;101233.59;5072659;28;19941;-60
2023/03/28 05:50:09;;;;;;;;;;;;;;;3.02;100.00;101232.03;5072302;28;19955;-60
2023/03/28 05:52:35;;;;;;;;;;;;;;;3.24;100.00;101230.66;5072633;28;20383;-60
2023/03/28 05:55:00;;;;;;;;;;;;;;;3.37;100.00;101235.25;5060871;28;19944;-60
2023/03/28 05:57:25;;;;;;;;;;;;;;;3.44;100.00;101237.13;5052465;28;19955;-60
2023/03/28 05:59:51;;;;;;;;;;;;;;;3.62;100.00;101232.13;5066047;28;19938;-60
2023/03/28 06:02:17;;;;;;;;;;;;;;;3.84;100.00;101226.28;5071979;28;20262;-60
2023/03/28 06:04:43;;;;;;;;;;;;;;;4.04;100.00;101228.34;5072202;28;19944;-60
2023/03/28 06:07:09;;;;;;;;;;;;;;;4.19;100.00;101222.38;5057661;28;19937;-59
2023/03/28 06:09:35;;;;;;;;;;;;;;;4.46;100.00;101217.44;5052376;28;19940;-60
2023/03/28 06:12:01;;;;;;;;;;;;;;;4.87;100.00;101226.66;5054812;28;19931;-59
2023/03/28 06:14:27;;;;;;;;;;;;;;;5.43;100.00;101213.94;5052321;28;19928;-59
2023/03/28 06:16:52;;;;;;;;;;;;;;;6.25;100.00;101210.91;5052245;28;20528;-59
2023/03/28 06:19:17;;;;;;;;;;;;;;;7.34;99.11;101219.00;5054772;28;19935;-60
2023/03/28 06:21:42;;;;;;;;;;;;;;;8.60;91.70;101223.97;5065473;28;20563;-59
2023/03/28 06:24:08;;;;;;;;;;;;;;;10.17;79.82;101212.00;5068613;28;20413;-59
2023/03/28 06:26:34;;;;;;;;;;;;;;;11.44;63.04;101219.00;5072016;28;20439;-60
2023/03/28 06:28:59;;;;;;;;;;;;;;;12.13;59.22;101216.88;5071059;28;20303;-60
2023/03/28 06:31:24;;;;;;;;;;;;;;;12.31;54.97;101225.38;5063904;28;19920;-60
2023/03/28 06:33:50;;;;;;;;;;;;;;;13.07;53.24;101227.28;5071935;28;19940;-60
2023/03/28 06:36:15;;;;;;;;;;;;;;;14.10;50.32;101244.25;5064765;28;19958;-59
2023/03/28 06:38:40;;;;;;;;;;;;;;;14.52;49.76;101251.97;5071450;28;20360;-59
2023/03/28 06:41:06;;;;;;;;;;;;;;;14.63;47.46;101243.59;5071129;28;19950;-60
2023/03/28 06:43:31;;;;;;;;;;;;;;;14.22;47.36;101252.81;5068538;28;19931;-60
2023/03/28 06:45:56;;;;;;;;;;;;;;;14.26;47.34;101249.16;5071533;28;19939;-60
2023/03/28 06:48:22;;;;;;;;;;;;;;;14.67;46.66;101253.31;5063508;28;19962;-60
2023/03/28 06:50:49;;;;;;;;;;;;;;;15.38;44.79;101251.09;5051429;28;19921;-60
2023/03/28 06:53:17;;;;;;;;;;;;;;;16.19;44.51;101252.78;5052107;28;20367;-60
2023/03/28 06:55:42;;;;;;;;;;;;;;;16.73;42.33;101250.78;5053572;28;19935;-60
2023/03/28 06:58:07;;;;;;;;;;;;;;;17.06;41.55;101244.97;5051565;28;19954;-59
2023/03/28 07:00:33;;;;;;;;;;;;;;;17.56;40.72;101253.69;5053838;28;19920;-60
2023/03/28 07:02:59;;;;;;;;;;;;;;;17.40;39.55;101254.34;5065189;28;19934;-59
2023/03/28 07:05:24;;;;;;;;;;;;;;;17.00;40.23;101257.78;5067764;28;20343;-60
2023/03/28 07:07:49;;;;;;;;;;;;;;;16.71;40.70;101252.63;5068053;28;19913;-60
2023/03/28 07:10:15;;;;;;;;;;;;;;;16.61;40.66;101253.91;5068675;28;19929;-60
2023/03/28 07:12:40;;;;;;;;;;;;;;;17.20;40.13;101257.84;5057603;28;19935;-60
2023/03/28 07:15:05;;;;;;;;;;;;;;;17.85;38.94;101257.88;5048711;28;19951;-60
2023/03/28 07:17:31;;;;;;;;;;;;;;;18.45;38.80;101262.44;5049955;28;20093;-60
2023/03/28 07:19:56;;;;;;;;;;;;;;;18.86;38.15;101273.03;5033347;28;19932;-59
2023/03/28 07:22:21;;;;;;;;;;;;;;;18.36;38.43;101269.06;5049554;28;20001;-60
2023/03/28 07:24:47;;;;;;;;;;;;;;;18.58;38.83;101271.69;5052047;28;20414;-60
2023/03/28 07:27:12;;;;;;;;;;;;;;;18.96;37.83;101278.91;5049782;28;19989;-60
2023/03/28 07:29:37;;;;;;;;;;;;;;;19.00;37.65;101280.50;5050036;28;19916;-60
2023/03/28 07:32:03;;;;;;;;;;;;;;;18.77;38.58;101278.00;5056166;28;20100;-60
2023/03/28 07:34:28;;;;;;;;;;;;;;;18.59;37.15;101279.72;5054253;28;20315;-60
2023/03/28 07:36:53;;;;;;;;;;;;;;;17.39;39.89;101274.13;5049855;28;20015;-60
2023/03/28 07:39:18;;;;;;;;;;;;;;;17.66;39.67;101279.28;5052563;28;19935;-59
2023/03/28 07:41:44;;;;;;;;;;;;;;;17.56;39.69;101277.06;5067209;28;19989;-60
2023/03/28 07:44:09;;;;;;;;;;;;;;;17.74;39.64;101278.97;5069290;28;19940;-60
2023/03/28 07:46:36;;;;;;;;;;;;;;;17.71;39.07;101277.28;5051828;28;19969;-59
2023/03/28 07:49:02;;;;;;;;;;;;;;;16.89;40.04;101281.50;5049440;28;20501;-60
2023/03/28 07:51:28;;;;;;;;;;;;;;;16.81;41.56;101281.81;5049712;28;19938;-61
2023/03/28 07:53:54;;;;;;;;;;;;;;;17.09;41.20;101273.53;5051830;28;19936;-61
2023/03/28 07:56:19;;;;;;;;;;;;;;;17.27;41.12;101275.50;5069065;28;20478;-61
2023/03/28 07:58:44;;;;;;;;;;;;;;;17.15;41.67;101278.66;5069985;28;20017;-60
2023/03/28 08:01:11;;;;;;;;;;;;;;;17.19;42.19;101276.72;5055382;28;19939;-60
2023/03/28 08:03:37;;;;;;;;;;;;;;;17.04;42.00;101281.78;5067998;28;20027;-60
2023/03/28 08:06:07;;;;;;;;;;;;;;;16.18;42.66;101288.59;5063481;28;20076;-60
2023/03/28 08:08:32;;;;;;;;;;;;;;;15.83;44.44;101277.28;5048837;28;19966;-60
2023/03/28 08:10:58;;;;;;;;;;;;;;;16.14;41.78;101282.47;5048980;28;20016;-61
2023/03/28 08:13:23;;;;;;;;;;;;;;;15.82;43.64;101285.38;5051490;28;20427;-60
2023/03/28 08:15:50;;;;;;;;;;;;;;;15.81;43.82;101284.50;5049349;28;19927;-60
2023/03/28 08:18:19;;;;;;;;;;;;;;;15.89;43.18;101272.63;5049793;28;19950;-60
2023/03/28 08:20:45;;;;;;;;;;;;;;;15.64;43.62;101276.16;5051026;28;20018;-59
2023/03/28 08:23:10;;;;;;;;;;;;;;;15.59;43.48;101283.47;5050910;28;19970;-60
2023/03/28 08:25:36;;;;;;;;;;;;;;;15.35;42.18;101286.03;5064071;28;19934;-60
2023/03/28 08:28:01;;;;;;;;;;;;;;;14.75;45.16;101294.16;5055860;28;20390;-60
2023/03/28 08:30:27;;;;;;;;;;;;;;;15.41;44.48;101273.34;5050081;28;19949;-60
2023/03/28 08:32:52;;;;;;;;;;;;;;;16.03;44.89;101286.47;5057675;28;19948;-60
2023/03/28 08:35:17;;;;;;;;;;;;;;;15.91;41.99;101278.84;5048753;28;19971;-60
2023/03/28 08:37:43;;;;;;;;;;;;;;;16.10;43.72;101285.31;5048507;28;19956;-60
2023/03/28 08:40:12;;;;;;;;;;;;;;;16.17;44.10;101281.47;5062703;28;20407;-60
2023/03/28 08:42:41;;;;;;;;;;;;;;;16.43;43.73;101284.09;5069672;28;19933;-60
2023/03/28 08:45:12;;;;;;;;;;;;;;;16.62;41.89;101280.72;5066749;28;20012;-60
2023/03/28 08:47:40;;;;;;;;;;;;;;;17.07;41.71;101276.28;5069591;28;20031;-60
2023/03/28 08:50:14;;;;;;;;;;;;;;;17.19;40.06;101288.38;5055654;28;19924;-60
2023/03/28 08:52:40;;;;;;;;;;;;;;;16.26;40.63;101282.03;5049335;28;20011;-60
2023/03/28 08:55:22;;;;;;;;;;;;;;;15.57;41.93;101279.97;5051147;28;19921;-58
2023/03/28 08:57:50;;;;;;;;;;;;;;;16.18;40.48;101281.44;5048898;28;20437;-59
2023/03/28 09:00:21;;;;;;;;;;;;;;;16.26;40.85;101276.66;5052491;28;19913;-59
2023/03/28 09:02:47;;;;;;;;;;;;;;;16.61;41.51;101284.34;5069598;28;19960;-60
2023/03/28 09:05:14;;;;;;;;;;;;;;;16.33;41.03;101278.19;5072518;28;19944;-59
2023/03/28 09:07:43;;;;;;;;;;;;;;;15.90;41.86;101279.78;5072817;28;19958;-59
2023/03/28 09:10:28;;;;;;;;;;;;;;;15.98;41.28;101275.00;5068103;28;19943;-59
2023/03/28 09:13:16;;;;;;;;;;;;;;;16.49;40.51;101273.19;5055284;28;19921;-59
2023/03/28 09:15:44;;;;;;;;;;;;;;;16.67;40.54;101280.56;5024134;28;20376;-60
2023/03/28 09:18:16;;;;;;;;;;;;;;;17.10;40.67;101264.53;5054686;28;19924;-60
2023/03/28 09:20:48;;;;;;;;;;;;;;;17.49;38.54;101265.66;5052548;28;19950;-60
2023/03/28 09:23:32;;;;;;;;;;;;;;;17.23;38.42;101263.13;5052569;28;19920;-60
2023/03/28 09:26:00;;;;;;;;;;;;;;;16.79;39.13;101263.97;5071379;28;19916;-60
2023/03/28 09:28:37;;;;;;;;;;;;;;;15.60;40.13;101271.81;5071820;28;20046;-60
2023/03/28 09:31:05;;;;;;;;;;;;;;;14.60;41.77;101282.97;5071798;28;20362;-59
2023/03/28 09:33:33;;;;;;;;;;;;;;;15.17;42.09;101279.44;5064849;28;19925;-60
2023/03/28 09:36:00;;;;;;;;;;;;;;;15.80;40.22;101272.03;5053087;28;19917;-60
2023/03/28 09:38:34;;;;;;;;;;;;;;;15.73;40.53;101270.47;5052672;28;19921;-60
2023/03/28 09:41:02;;;;;;;;;;;;;;;14.84;41.41;101268.88;5069980;28;19923;-59
2023/03/28 09:43:27;;;;;;;;;;;;;;;14.63;42.14;101277.56;5059487;28;19935;-60
2023/03/28 09:45:53;;;;;;;;;;;;;;;14.92;43.13;101273.09;5052824;28;19917;-60
2023/03/28 09:48:23;;;;;;;;;;;;;;;14.88;43.08;101282.13;5052571;28;19920;-60
2023/03/28 09:50:50;;;;;;;;;;;;;;;13.91;42.04;101272.38;5054669;28;20387;-60
2023/03/28 09:53:22;;;;;;;;;;;;;;;13.50;42.42;101267.22;5056020;28;20255;-59
2023/03/28 09:55:48;;;;;;;;;;;;;;;14.42;43.59;101266.53;5063049;28;19927;-60
2023/03/28 09:58:14;;;;;;;;;;;;;;;15.74;42.88;101256.16;5071046;28;19951;-60
2023/03/28 10:00:41;;;;;;;;;;;;;;;16.21;40.08;101258.97;5070289;28;19942;-60
2023/03/28 10:03:21;;;;;;;;;;;;;;;15.94;40.15;101259.94;5064951;28;20336;-59
2023/03/28 10:05:47;;;;;;;;;;;;;;;15.78;40.02;101263.13;5067217;28;19999;-59
2023/03/28 10:08:21;;;;;;;;;;;;;;;16.42;39.77;101260.88;5073042;28;20007;-60
2023/03/28 10:10:53;;;;;;;;;;;;;;;16.83;40.10;101258.44;5061704;28;19927;-60
2023/03/28 10:13:19;;;;;;;;;;;;;;;17.49;38.97;101244.16;5052151;28;20572;-60
2023/03/28 10:15:44;;;;;;;;;;;;;;;17.24;39.72;101243.34;5051983;28;19928;-59
2023/03/28 10:18:15;;;;;;;;;;;;;;;17.09;40.63;101250.22;5052573;28;20478;-60
2023/03/28 10:20:41;;;;;;;;;;;;;;;17.12;39.28;101238.47;5070529;28;19977;-60
2023/03/28 10:23:06;;;;;;;;;;;;;;;16.40;38.10;101247.50;5071428;28;19999;-60
2023/03/28 10:25:34;;;;;;;;;;;;;;;15.80;40.00;101241.63;5054428;28;19966;-59
2023/03/28 10:27:59;;;;;;;;;;;;;;;16.14;41.30;101244.91;5058699;28;20318;-60
2023/03/28 10:30:29;;;;;;;;;;;;;;;17.18;39.19;101235.53;5059624;28;19958;-60
2023/03/28 10:33:06;;;;;;;;;;;;;;;16.58;33.27;101238.81;5055972;28;19941;-60
2023/03/28 10:35:32;;;;;;;;;;;;;;;16.41;35.69;101243.88;5053814;28;20754;-60
2023/03/28 10:38:02;;;;;;;;;;;;;;;16.35;36.10;101237.88;5051886;28;19988;-60
2023/03/28 10:40:30;;;;;;;;;;;;;;;15.97;36.86;101230.31;5051726;28;19949;-60
2023/03/28 10:42:56;;;;;;;;;;;;;;;16.06;38.63;101224.63;5054301;28;20315;-59
2023/03/28 10:45:35;;;;;;;;;;;;;;;16.55;37.25;101224.59;5054586;28;19943;-59
2023/03/28 10:48:03;;;;;;;;;;;;;;;16.57;35.10;101228.97;5054088;28;20054;-60
2023/03/28 10:50:42;;;;;;;;;;;;;;;16.35;36.97;101224.44;5051365;28;19963;-60
2023/03/28 10:53:11;;;;;;;;;;;;;;;16.87;34.59;101222.44;5050978;28;20403;-60
2023/03/28 10:55:39;;;;;;;;;;;;;;;17.59;34.33;101218.63;5053227;28;19916;-60
2023/03/28 10:58:19;;;;;;;;;;;;;;;18.01;33.87;101222.13;5050557;28;20400;-59
2023/03/28 11:00:55;;;;;;;;;;;;;;;18.48;34.12;101222.75;5051790;28;19978;-60
2023/03/28 11:03:26;;;;;;;;;;;;;;;18.20;33.69;101220.38;5070398;28;19912;-60
2023/03/28 11:05:54;;;;;;;;;;;;;;;18.19;33.33;101213.25;5069945;28;19963;-59
2023/03/28 11:08:29;;;;;;;;;;;;;;;18.53;32.53;101214.44;5053940;28;19954;-60
2023/03/28 11:10:54;;;;;;;;;;;;;;;18.29;30.79;101206.50;5050504;28;19917;-60
2023/03/28 11:13:27;;;;;;;;;;;;;;;18.35;31.52;101202.66;5053376;28;20372;-60
2023/03/28 11:16:04;;;;;;;;;;;;;;;17.99;32.51;101197.09;5051475;28;20377;-59
2023/03/28 11:18:47;;;;;;;;;;;;;;;17.59;30.68;101202.47;5052001;28;19990;-60
2023/03/28 11:21:21;;;;;;;;;;;;;;;17.01;30.83;101192.31;5050957;28;19959;-60
2023/03/28 11:24:07;;;;;;;;;;;;;;;16.90;33.41;101189.19;5050689;28;19921;-60
2023/03/28 11:26:47;;;;;;;;;;;;;;;17.07;32.57;101182.19;5052465;28;20007;-60
2023/03/28 11:29:18;;;;;;;;;;;;;;;17.63;32.35;101179.84;5050527;28;20261;-60
2023/03/28 11:31:54;;;;;;;;;;;;;;;17.93;33.00;101181.22;5067251;28;19920;-60
2023/03/28 11:34:29;;;;;;;;;;;;;;;17.83;33.01;101165.53;5054358;28;20011;-60
2023/03/28 11:36:59;;;;;;;;;;;;;;;18.46;31.09;101159.09;5050652;28;19921;-61
2023/03/28 11:39:27;;;;;;;;;;;;;;;18.91;30.65;101151.50;5052992;28;19936;-60
2023/03/28 11:41:55;;;;;;;;;;;;;;;19.28;32.42;101146.91;5050445;28;19917;-60
2023/03/28 11:44:29;;;;;;;;;;;;;;;19.39;30.58;101149.09;5050557;28;19967;-60
2023/03/28 11:47:01;;;;;;;;;;;;;;;19.34;28.77;101140.38;5050645;28;19952;-61
2023/03/28 11:49:27;;;;;;;;;;;;;;;19.55;30.73;101133.88;5049290;28;19955;-60
2023/03/28 11:51:52;;;;;;;;;;;;;;;19.54;31.70;101133.00;5060810;28;20315;-60
2023/03/28 11:54:21;;;;;;;;;;;;;;;19.63;30.47;101131.66;5069435;28;19931;-60
2023/03/28 11:56:54;;;;;;;;;;;;;;;19.29;30.41;101120.84;5065737;28;20222;-60
2023/03/28 11:59:42;;;;;;;;;;;;;;;19.91;31.65;101115.75;5069470;28;19925;-60
2023/03/28 12:02:23;;;;;;;;;;;;;;;19.45;30.57;101114.59;5060644;28;19917;-60
2023/03/28 12:04:53;;;;;;;;;;;;;;;18.24;30.11;101114.25;5058106;28;19912;-60
2023/03/28 12:07:29;;;;;;;;;;;;;;;18.77;30.73;101113.56;5070070;28;20436;-60
2023/03/28 12:09:57;;;;;;;;;;;;;;;18.79;30.76;101115.25;5070244;28;19951;-60
2023/03/28 12:12:26;;;;;;;;;;;;;;;18.58;31.54;101112.69;5066418;28;19920;-61
2023/03/28 12:14:55;;;;;;;;;;;;;;;18.91;30.56;101102.97;5068614;28;19924;-60
2023/03/28 12:17:50;;;;;;;;;;;;;;;19.31;29.22;101103.63;5069912;28;19920;-60
2023/03/28 12:20:21;;;;;;;;;;;;;;;19.33;29.55;101081.94;5048579;28;19913;-60
2023/03/28 12:22:49;;;;;;;;;;;;;;;20.44;31.97;101081.31;5054017;28;20001;-60
2023/03/28 12:25:18;;;;;;;;;;;;;;;20.23;29.21;101079.78;5049918;28;19935;-61
2023/03/28 12:27:50;;;;;;;;;;;;;;;20.38;29.02;101084.31;5055059;28;19916;-61
2023/03/28 12:30:20;;;;;;;;;;;;;;;20.42;29.60;101069.69;5067834;28;20313;-61
2023/03/28 12:33:03;;;;;;;;;;;;;;;20.91;30.11;101062.34;5061784;28;19931;-61
2023/03/28 12:35:32;;;;;;;;;;;;;;;21.48;28.95;101066.16;5066827;28;19924;-61
2023/03/28 12:38:06;;;;;;;;;;;;;;;21.77;27.55;101060.72;5050694;28;19920;-61
2023/03/28 12:40:44;;;;;;;;;;;;;;;20.93;26.06;101065.81;5049389;28;19970;-61
2023/03/28 12:43:11;;;;;;;;;;;;;;;20.46;28.39;101049.63;5051301;28;20463;-61
2023/03/28 12:45:42;;;;;;;;;;;;;;;19.32;28.83;101055.94;5047130;28;19921;-61
2023/03/28 12:48:12;;;;;;;;;;;;;;;18.95;28.59;101056.03;5048597;28;19917;-60